createdAt,value
2019-03-31T00:02:39.289Z,59.89
2019-03-31T00:03:46.645Z,59.68
2019-03-31T00:04:47.083Z,60.09
2019-03-31T00:08:01.645Z,60.60
2019-03-31T00:14:50.114Z,60.91
2019-03-31T00:25:31.522Z,60.76
2019-03-31T00:26:31.971Z,60.96
2019-03-31T00:28:08.027Z,60.93
2019-03-31T00:29:08.472Z,61.04
2019-03-31T00:30:09.014Z,61.57
2019-03-31T00:31:21.518Z,61.44
2019-03-31T00:32:15.989Z,61.37
2019-03-31T00:33:16.456Z,61.07
2019-03-31T00:34:16.922Z,61.37
2019-03-31T00:35:17.393Z,61.57
2019-03-31T00:36:17.927Z,61.16
2019-03-31T00:37:18.376Z,61.37
2019-03-31T00:38:18.875Z,61.37
2019-03-31T00:39:19.325Z,60.86
2019-03-31T00:40:19.777Z,60.96
2019-03-31T00:41:20.222Z,60.86
2019-03-31T00:42:20.747Z,61.78
2019-03-31T00:43:21.183Z,61.68
2019-03-31T00:44:21.767Z,60.99
2019-03-31T00:45:22.228Z,61.19
2019-03-31T00:46:23.714Z,61.40
2019-03-31T00:47:24.177Z,60.69
2019-03-31T00:48:24.954Z,61.09
2019-03-31T00:49:25.454Z,61.30
2019-03-31T00:50:25.989Z,61.07
2019-03-31T00:51:26.435Z,60.78
2019-03-31T00:52:26.966Z,61.40
2019-03-31T00:53:27.409Z,61.37
2019-03-31T00:54:28.048Z,60.86
2019-03-31T00:55:28.518Z,60.55
2019-03-31T00:56:28.994Z,60.66
2019-03-31T00:57:29.464Z,59.74
2019-03-31T00:58:29.937Z,59.74
2019-03-31T00:59:30.431Z,59.91
2019-03-31T01:00:31.065Z,60.05
2019-03-31T01:01:36.737Z,60.05
2019-03-31T01:02:38.221Z,60.35
2019-03-31T01:03:38.659Z,60.22
2019-03-31T01:04:40.211Z,60.53
2019-03-31T01:05:40.668Z,59.91
2019-03-31T01:06:41.141Z,59.41
2019-03-31T01:07:41.913Z,59.61
2019-03-31T01:08:42.482Z,59.41
2019-03-31T01:09:42.924Z,59.61
2019-03-31T01:10:43.417Z,59.41
2019-03-31T01:11:43.864Z,59.81
2019-03-31T01:12:52.081Z,59.61
2019-03-31T01:13:52.529Z,59.61
2019-03-31T01:15:16.023Z,59.51
2019-03-31T01:16:16.469Z,60.12
2019-03-31T01:20:17.328Z,59.81
2019-03-31T01:21:17.767Z,59.51
2019-03-31T01:24:48.801Z,59.84
2019-03-31T01:25:49.248Z,60.69
2019-03-31T01:28:06.796Z,60.99
2019-03-31T01:31:50.328Z,61.32
2019-03-31T01:32:48.938Z,61.12
2019-03-31T01:33:49.382Z,60.71
2019-03-31T01:37:07.416Z,61.35
2019-03-31T01:38:07.873Z,60.94
2019-03-31T01:39:25.460Z,60.97
2019-03-31T01:40:25.897Z,60.97
2019-03-31T01:43:41.545Z,61.90
2019-03-31T01:44:42.003Z,61.90
2019-03-31T01:45:42.544Z,61.92
2019-03-31T01:46:42.980Z,61.82
2019-03-31T01:49:53.988Z,62.95
2019-03-31T01:51:02.563Z,63.07
2019-03-31T01:52:03.009Z,62.77
2019-03-31T01:53:19.985Z,63.07
2019-03-31T01:54:20.474Z,62.87
2019-03-31T01:55:21.084Z,62.87
2019-03-31T01:56:21.518Z,62.87
2019-03-31T01:57:22.121Z,63.28
2019-03-31T01:58:22.577Z,63.28
2019-03-31T01:59:23.067Z,63.07
2019-03-31T02:00:23.545Z,63.10
2019-03-31T02:01:24.090Z,63.18
2019-03-31T02:02:24.558Z,63.07
2019-03-31T02:03:26.100Z,62.77
2019-03-31T02:04:26.544Z,63.10
2019-03-31T02:05:26.989Z,62.87
2019-03-31T02:06:27.442Z,62.70
2019-03-31T02:07:27.888Z,62.87
2019-03-31T02:08:28.416Z,63.10
2019-03-31T02:09:28.865Z,62.90
2019-03-31T02:10:29.305Z,63.72
2019-03-31T02:11:29.774Z,64.54
2019-03-31T02:12:30.213Z,64.74
2019-03-31T02:13:30.674Z,64.23
2019-03-31T02:14:31.128Z,64.23
2019-03-31T02:15:31.578Z,64.13
2019-03-31T02:16:32.019Z,63.69
2019-03-31T02:17:32.486Z,63.72
2019-03-31T02:18:33.008Z,64.23
2019-03-31T02:19:33.467Z,64.13
2019-03-31T02:20:33.909Z,64.03
2019-03-31T02:21:34.354Z,63.51
2019-03-31T02:22:34.822Z,63.72
2019-03-31T02:23:35.296Z,63.51
2019-03-31T02:24:35.739Z,63.31
2019-03-31T02:25:36.253Z,63.21
2019-03-31T02:26:36.706Z,63.41
2019-03-31T02:27:37.159Z,64.00
2019-03-31T02:28:37.633Z,63.69
2019-03-31T02:29:38.078Z,64.10
2019-03-31T02:30:38.531Z,64.81
2019-03-31T02:31:38.979Z,64.61
2019-03-31T02:32:39.582Z,64.61
2019-03-31T02:33:40.050Z,64.30
2019-03-31T02:34:40.507Z,65.12
2019-03-31T02:35:41.043Z,64.84
2019-03-31T02:36:41.493Z,65.02
2019-03-31T02:37:41.949Z,65.02
2019-03-31T02:38:42.422Z,65.33
2019-03-31T02:39:42.871Z,64.92
2019-03-31T02:40:43.315Z,65.12
2019-03-31T02:41:43.797Z,65.33
2019-03-31T02:42:44.233Z,65.97
2019-03-31T02:43:44.710Z,65.84
2019-03-31T02:44:45.164Z,65.63
2019-03-31T02:45:45.726Z,65.43
2019-03-31T02:46:46.183Z,65.43
2019-03-31T02:47:46.623Z,65.02
2019-03-31T02:48:47.104Z,65.43
2019-03-31T02:49:47.546Z,65.84
2019-03-31T02:50:48.017Z,66.04
2019-03-31T02:51:49.470Z,65.43
2019-03-31T02:52:49.929Z,65.02
2019-03-31T02:53:50.397Z,65.05
2019-03-31T02:54:50.845Z,65.33
2019-03-31T02:55:51.300Z,65.15
2019-03-31T02:56:51.748Z,65.05
2019-03-31T02:57:52.211Z,65.36
2019-03-31T02:58:52.663Z,65.36
2019-03-31T02:59:53.108Z,65.36
2019-03-31T03:00:53.547Z,65.46
2019-03-31T03:01:54.006Z,65.56
2019-03-31T03:02:54.481Z,65.66
2019-03-31T03:03:54.964Z,64.87
2019-03-31T03:04:55.454Z,65.69
2019-03-31T03:05:55.910Z,65.80
2019-03-31T03:06:56.383Z,66.10
2019-03-31T03:07:56.856Z,66.31
2019-03-31T03:08:57.317Z,67.13
2019-03-31T03:25:01.545Z,68.90
2019-03-31T03:26:02.015Z,68.69
2019-03-31T03:27:02.464Z,68.97
2019-03-31T03:30:17.593Z,69.00
2019-03-31T03:34:56.185Z,69.44
2019-03-31T03:41:49.794Z,70.26
2019-03-31T03:42:50.229Z,69.95
2019-03-31T03:52:17.167Z,69.54
2019-03-31T03:58:52.147Z,68.49
2019-03-31T04:04:30.581Z,68.90
2019-03-31T04:08:00.185Z,68.93
2019-03-31T04:11:27.246Z,69.13
2019-03-31T04:12:27.702Z,68.93
2019-03-31T04:13:29.247Z,68.86
2019-03-31T04:14:29.702Z,69.17
2019-03-31T04:15:38.197Z,69.65
2019-03-31T04:16:38.638Z,69.27
2019-03-31T04:20:18.441Z,69.37
2019-03-31T04:23:34.779Z,69.17
2019-03-31T04:24:35.245Z,69.68
2019-03-31T04:28:22.728Z,68.76
2019-03-31T04:29:23.212Z,68.96
2019-03-31T04:36:05.378Z,68.79
2019-03-31T04:37:05.853Z,68.79
2019-03-31T04:38:20.821Z,69.10
2019-03-31T04:39:21.265Z,68.89
2019-03-31T04:40:26.934Z,69.10
2019-03-31T04:41:27.403Z,69.81
2019-03-31T04:51:01.287Z,69.30
2019-03-31T04:52:01.746Z,69.10
2019-03-31T04:53:02.295Z,69.13
2019-03-31T04:54:02.739Z,69.02
2019-03-31T04:55:03.193Z,70.15
2019-03-31T04:56:03.639Z,69.84
2019-03-31T04:57:04.596Z,69.61
2019-03-31T04:58:05.213Z,69.54
2019-03-31T04:59:05.673Z,70.36
2019-03-31T05:00:06.130Z,70.29
2019-03-31T05:01:06.578Z,70.70
2019-03-31T05:02:07.035Z,70.56
2019-03-31T05:03:07.484Z,71.01
2019-03-31T05:04:07.920Z,70.90
2019-03-31T05:05:08.390Z,70.70
2019-03-31T05:06:08.832Z,71.31
2019-03-31T05:07:09.282Z,71.31
2019-03-31T05:08:09.720Z,70.90
2019-03-31T05:09:10.185Z,70.80
2019-03-31T05:10:10.664Z,71.21
2019-03-31T05:11:32.113Z,71.01
2019-03-31T05:12:32.637Z,71.01
2019-03-31T05:18:37.217Z,71.28
2019-03-31T05:21:56.174Z,71.59
2019-03-31T05:22:56.651Z,71.28
2019-03-31T05:27:58.774Z,71.59
2019-03-31T05:28:59.236Z,71.59
2019-03-31T05:33:17.598Z,71.21
2019-03-31T05:34:19.513Z,70.80
2019-03-31T05:35:20.151Z,71.62
2019-03-31T05:36:20.665Z,72.03
2019-03-31T05:37:21.123Z,72.44
2019-03-31T05:38:21.560Z,72.55
2019-03-31T05:39:22.102Z,72.44
2019-03-31T05:40:22.601Z,71.83
2019-03-31T05:43:42.658Z,72.41
2019-03-31T05:45:20.649Z,72.41
2019-03-31T05:46:21.096Z,72.51
2019-03-31T05:51:59.504Z,71.80
2019-03-31T05:57:04.898Z,71.59
2019-03-31T05:58:05.346Z,71.69
2019-03-31T05:59:28.908Z,71.66
2019-03-31T06:00:29.395Z,71.66
2019-03-31T06:01:38.642Z,71.66
2019-03-31T06:02:39.089Z,71.76
2019-03-31T06:04:56.567Z,71.69
2019-03-31T06:05:58.158Z,71.66
2019-03-31T06:06:58.598Z,72.20
2019-03-31T06:08:20.157Z,72.00
2019-03-31T06:09:20.602Z,71.59
2019-03-31T06:13:25.253Z,71.62
2019-03-31T06:14:47.745Z,71.72
2019-03-31T06:15:48.230Z,71.31
2019-03-31T06:17:17.554Z,71.21
2019-03-31T06:18:18.010Z,71.42
2019-03-31T06:21:32.234Z,71.45
2019-03-31T06:22:32.745Z,71.62
2019-03-31T06:24:10.037Z,71.93
2019-03-31T06:25:10.499Z,71.72
2019-03-31T06:29:01.618Z,71.62
2019-03-31T06:31:46.425Z,72.44
2019-03-31T06:35:09.030Z,72.00
2019-03-31T06:38:18.877Z,71.69
2019-03-31T06:39:19.327Z,70.87
2019-03-31T06:40:19.774Z,70.77
2019-03-31T06:41:20.728Z,71.28
2019-03-31T06:42:22.177Z,71.28
2019-03-31T06:43:22.608Z,70.87
2019-03-31T06:44:23.128Z,71.28
2019-03-31T06:45:23.588Z,71.18
2019-03-31T06:46:38.527Z,71.39
2019-03-31T06:47:38.972Z,71.28
2019-03-31T06:48:39.413Z,71.35
2019-03-31T06:49:40.975Z,71.56
2019-03-31T06:50:41.420Z,70.84
2019-03-31T06:51:44.978Z,70.94
2019-03-31T06:52:45.414Z,70.94
2019-03-31T06:53:54.486Z,70.32
2019-03-31T06:54:54.926Z,70.22
2019-03-31T06:56:18.490Z,70.32
2019-03-31T06:57:18.957Z,69.78
2019-03-31T06:58:19.409Z,70.12
2019-03-31T06:59:20.934Z,69.78
2019-03-31T07:00:21.368Z,69.37
2019-03-31T07:01:21.930Z,69.89
2019-03-31T07:02:22.374Z,69.27
2019-03-31T07:03:44.925Z,68.96
2019-03-31T07:04:45.429Z,69.03
2019-03-31T07:05:45.955Z,69.54
2019-03-31T07:06:46.407Z,68.69
2019-03-31T07:08:01.543Z,68.79
2019-03-31T07:09:02.029Z,68.28
2019-03-31T07:10:09.449Z,68.05
2019-03-31T07:11:09.916Z,67.74
2019-03-31T07:12:10.423Z,67.54
2019-03-31T07:13:27.490Z,67.02
2019-03-31T07:14:27.935Z,66.99
2019-03-31T07:15:29.441Z,67.02
2019-03-31T07:16:29.912Z,67.19
2019-03-31T07:17:30.375Z,67.19
2019-03-31T07:18:30.817Z,66.99
2019-03-31T07:19:52.405Z,66.96
2019-03-31T07:20:52.872Z,66.35
2019-03-31T07:21:55.445Z,66.01
2019-03-31T07:22:55.910Z,64.89
2019-03-31T07:23:56.424Z,65.26
2019-03-31T07:24:56.861Z,64.96
2019-03-31T07:26:25.012Z,65.16
2019-03-31T07:27:25.561Z,64.42
2019-03-31T07:28:27.089Z,64.83
2019-03-31T07:29:27.537Z,64.11
2019-03-31T07:32:40.055Z,63.67
2019-03-31T07:34:01.615Z,63.03
2019-03-31T07:35:02.079Z,61.71
2019-03-31T07:36:03.549Z,61.71
2019-03-31T07:37:04.042Z,61.88
2019-03-31T07:38:11.552Z,61.78
2019-03-31T07:39:12.114Z,61.68
2019-03-31T07:40:14.105Z,60.93
2019-03-31T07:41:14.736Z,60.93
2019-03-31T07:45:12.902Z,59.58
2019-03-31T07:51:01.773Z,56.49
2019-03-31T07:52:02.247Z,57.10
2019-03-31T07:53:38.511Z,56.70
2019-03-31T07:54:38.946Z,56.49
2019-03-31T07:55:39.391Z,57.10
2019-03-31T07:56:54.791Z,56.60
2019-03-31T07:57:55.544Z,56.73
2019-03-31T08:03:27.891Z,55.63
2019-03-31T08:04:28.331Z,55.22
2019-03-31T08:05:37.659Z,55.20
2019-03-31T08:06:38.257Z,54.46
2019-03-31T08:07:46.775Z,54.66
2019-03-31T08:08:47.275Z,54.46
2019-03-31T08:12:30.881Z,52.56
2019-03-31T08:13:31.327Z,52.94
2019-03-31T08:21:59.817Z,50.81
2019-03-31T08:23:00.295Z,52.15
2019-03-31T08:25:15.862Z,52.66
2019-03-31T08:28:39.859Z,52.66
2019-03-31T08:29:40.314Z,52.05
2019-03-31T08:30:55.399Z,51.95
2019-03-31T08:31:55.842Z,52.64
2019-03-31T08:32:56.369Z,53.04
2019-03-31T08:33:56.833Z,52.33
2019-03-31T08:35:03.811Z,52.44
2019-03-31T08:36:04.343Z,52.64
2019-03-31T08:41:50.073Z,53.06
2019-03-31T08:42:50.525Z,53.32
2019-03-31T08:44:18.630Z,53.42
2019-03-31T08:45:19.077Z,53.63
2019-03-31T08:46:20.584Z,53.63
2019-03-31T08:47:21.033Z,53.80
2019-03-31T08:48:23.603Z,53.70
2019-03-31T08:49:24.059Z,52.81
2019-03-31T17:11:48.032Z,44.16
2019-03-31T17:12:48.674Z,44.63
2019-03-31T17:13:49.293Z,43.99
2019-03-31T17:14:49.918Z,44.28
2019-03-31T17:15:50.544Z,44.04
2019-03-31T17:16:51.290Z,43.99
2019-03-31T17:17:51.949Z,43.87
2019-03-31T17:18:52.541Z,43.83
2019-03-31T17:19:53.127Z,43.91
2019-03-31T17:20:53.709Z,43.49
2019-03-31T17:21:54.276Z,42.94
2019-03-31T17:22:54.885Z,43.10
2019-03-31T17:23:55.476Z,42.78
2019-03-31T17:24:56.034Z,43.04
2019-03-31T17:25:56.608Z,43.12
2019-03-31T17:26:57.179Z,42.19
2019-03-31T17:27:58.061Z,42.07
2019-03-31T17:28:58.614Z,42.05
2019-03-31T17:29:59.189Z,41.41
2019-03-31T17:31:30.553Z,41.59
2019-03-31T17:32:31.187Z,41.75
2019-03-31T17:33:31.897Z,41.63
2019-03-31T17:34:32.517Z,40.83
2019-03-31T17:35:33.232Z,41.01
2019-03-31T17:39:35.193Z,36.87
2019-03-31T17:41:11.560Z,36.00
2019-03-31T17:42:12.094Z,35.06
2019-03-31T17:57:20.893Z,36.92
2019-03-31T17:58:23.637Z,38.56
2019-03-31T17:59:24.089Z,38.38
2019-03-31T18:00:32.726Z,37.97
2019-03-31T18:01:33.199Z,38.21
2019-03-31T19:16:40.659Z,46.56
2019-03-31T19:17:41.101Z,46.87
2019-03-31T19:18:41.657Z,46.77
2019-03-31T19:19:42.117Z,46.77
2019-03-31T19:20:42.608Z,47.71
2019-03-31T19:21:43.062Z,47.71
2019-03-31T19:22:43.515Z,48.13
2019-03-31T19:23:44.027Z,48.33
2019-03-31T19:24:46.113Z,47.92
2019-03-31T19:25:47.851Z,47.92
2019-03-31T19:26:48.998Z,48.02
2019-03-31T19:27:49.513Z,47.92
2019-03-31T19:40:41.453Z,49.07
2019-03-31T19:41:42.190Z,49.17
2019-03-31T19:42:42.647Z,49.27
2019-03-31T19:43:43.090Z,49.17
2019-03-31T19:44:43.554Z,49.30
2019-03-31T19:45:44.007Z,49.30
2019-03-31T19:46:44.447Z,49.30
2019-03-31T19:47:44.941Z,49.40
2019-03-31T19:48:45.384Z,49.58
2019-03-31T19:49:45.908Z,49.38
2019-03-31T19:50:46.364Z,49.60
2019-03-31T19:51:46.811Z,49.38
2019-03-31T19:52:47.254Z,49.69
2019-03-31T19:53:47.699Z,48.89
2019-03-31T19:54:48.173Z,48.89
2019-03-31T19:55:48.612Z,49.09
2019-03-31T19:56:49.310Z,48.99
2019-03-31T19:57:49.771Z,49.30
2019-03-31T19:58:50.203Z,48.99
2019-03-31T19:59:50.690Z,48.99
2019-03-31T20:00:51.168Z,49.60
2019-03-31T20:01:51.692Z,49.43
2019-03-31T20:02:52.168Z,49.32
2019-03-31T20:03:52.729Z,49.22
2019-03-31T20:04:53.224Z,49.52
2019-03-31T20:05:53.756Z,49.63
2019-03-31T20:06:54.201Z,49.43
2019-03-31T20:07:54.715Z,49.43
2019-03-31T20:08:55.210Z,49.63
2019-03-31T20:09:55.686Z,49.43
2019-03-31T20:10:56.177Z,49.43
2019-03-31T20:11:56.635Z,49.63
2019-03-31T20:12:57.073Z,49.43
2019-03-31T20:13:57.517Z,49.32
2019-03-31T20:14:57.982Z,49.24
2019-03-31T20:15:58.431Z,49.44
2019-03-31T20:16:58.872Z,49.44
2019-03-31T20:17:59.335Z,49.24
2019-03-31T20:18:59.775Z,49.44
2019-03-31T20:20:00.355Z,49.24
2019-03-31T20:21:00.964Z,49.24
2019-03-31T20:22:01.409Z,49.44
2019-03-31T20:23:01.854Z,49.04
2019-03-31T20:24:02.309Z,49.35
2019-03-31T20:25:02.816Z,49.55
2019-03-31T20:26:03.287Z,49.14
2019-03-31T20:27:03.768Z,49.35
2019-03-31T20:28:04.235Z,48.72
2019-03-31T20:29:04.764Z,49.86
2019-03-31T20:30:05.229Z,49.88
2019-03-31T20:31:05.831Z,49.37
2019-03-31T20:32:06.316Z,49.16
2019-03-31T20:33:07.559Z,49.16
2019-03-31T20:34:08.151Z,49.06
2019-03-31T20:35:09.740Z,49.98
2019-03-31T20:36:10.181Z,49.16
2019-03-31T20:37:11.758Z,49.68
2019-03-31T20:38:12.227Z,49.47
2019-03-31T20:39:13.838Z,49.08
2019-03-31T20:40:14.302Z,49.39
2019-03-31T20:42:31.038Z,49.52
2019-03-31T20:43:31.607Z,49.93
2019-03-31T20:44:32.091Z,50.34
2019-03-31T20:45:36.130Z,49.72
2019-03-31T20:46:36.575Z,49.52
2019-03-31T20:47:39.086Z,49.72
2019-03-31T20:48:39.531Z,50.05
2019-03-31T20:49:42.104Z,49.95
2019-03-31T20:50:42.589Z,50.46
2019-03-31T20:51:45.174Z,50.16
2019-03-31T20:52:45.626Z,50.26
2019-03-31T20:53:46.177Z,49.95
2019-03-31T20:54:46.620Z,49.95
2019-03-31T20:56:02.614Z,49.85
2019-03-31T20:57:03.067Z,49.85
2019-03-31T20:58:04.612Z,50.05
2019-03-31T20:59:05.064Z,50.05
2019-03-31T21:00:05.613Z,50.16
2019-03-31T21:01:09.834Z,50.38
2019-03-31T21:02:19.617Z,50.16
2019-03-31T21:03:20.069Z,50.38
2019-03-31T21:04:21.555Z,50.38
2019-03-31T21:05:22.103Z,50.38
2019-03-31T21:06:23.687Z,50.38
2019-03-31T21:07:24.138Z,50.16
2019-03-31T21:31:04.870Z,50.74
2019-03-31T21:32:05.315Z,50.95
2019-03-31T21:33:22.454Z,50.54
2019-03-31T21:34:22.898Z,51.26
2019-03-31T21:38:06.665Z,50.62
2019-03-31T21:39:29.160Z,50.74
2019-03-31T21:40:29.665Z,50.54
2019-03-31T21:41:38.894Z,50.43
2019-03-31T21:42:39.353Z,50.43
2019-03-31T21:43:47.416Z,51.05
2019-03-31T21:44:47.853Z,50.74
2019-03-31T21:47:57.809Z,51.28
2019-03-31T21:48:58.259Z,51.49
2019-03-31T21:49:59.805Z,51.90
2019-03-31T21:51:00.271Z,51.79
2019-03-31T21:52:00.716Z,51.70
2019-03-31T21:53:01.165Z,51.39
2019-03-31T21:54:01.608Z,51.39
2019-03-31T21:55:02.087Z,51.59
2019-03-31T21:56:02.578Z,51.18
2019-03-31T21:59:12.521Z,51.70
2019-03-31T22:00:12.960Z,51.18
2019-03-31T22:01:13.478Z,51.31
2019-03-31T22:02:13.921Z,51.39
2019-03-31T22:03:14.372Z,51.39
2019-03-31T22:04:30.672Z,51.28
2019-03-31T22:05:31.141Z,51.10
2019-03-31T22:06:31.583Z,51.49
2019-03-31T22:07:32.034Z,51.10
2019-03-31T22:08:32.470Z,52.00
2019-03-31T22:09:32.924Z,51.72
2019-03-31T22:10:33.388Z,51.82
2019-03-31T22:11:33.841Z,51.92
2019-03-31T22:12:35.434Z,51.92
2019-03-31T22:13:35.882Z,52.03
2019-03-31T22:14:36.333Z,52.03
2019-03-31T22:15:36.787Z,52.03
2019-03-31T22:16:37.290Z,52.34
2019-03-31T22:17:37.745Z,51.64
2019-03-31T22:18:38.205Z,51.62
2019-03-31T22:19:38.764Z,51.82
2019-03-31T22:20:39.224Z,51.51
2019-03-31T22:21:39.658Z,51.51
2019-03-31T22:22:40.110Z,51.62
2019-03-31T22:23:40.551Z,51.51
2019-03-31T22:24:41.004Z,51.82
2019-03-31T22:25:41.479Z,51.54
2019-03-31T22:26:43.010Z,51.62
2019-03-31T22:27:43.453Z,51.54
2019-03-31T22:28:44.017Z,51.54
2019-03-31T22:29:44.588Z,52.65
2019-03-31T22:30:45.104Z,51.95
2019-03-31T22:31:45.561Z,51.64
2019-03-31T22:32:46.000Z,51.84
2019-03-31T22:33:46.435Z,51.95
2019-03-31T22:34:46.882Z,52.57
2019-03-31T22:35:47.339Z,52.67
2019-03-31T22:36:47.785Z,52.78
2019-03-31T22:37:48.325Z,52.57
2019-03-31T22:38:48.778Z,52.78
2019-03-31T22:39:49.303Z,52.67
2019-03-31T22:40:49.762Z,52.78
2019-03-31T22:41:50.213Z,52.36
2019-03-31T22:42:50.654Z,52.67
2019-03-31T22:43:51.102Z,52.36
2019-03-31T22:44:51.558Z,52.67
2019-03-31T22:45:52.242Z,52.36
2019-03-31T22:46:54.458Z,52.98
2019-03-31T22:47:58.101Z,52.36
2019-03-31T22:48:58.540Z,52.98
2019-03-31T22:49:58.987Z,53.29
2019-03-31T22:50:59.441Z,53.31
2019-03-31T22:51:59.889Z,53.21
2019-03-31T22:53:00.333Z,52.49
2019-03-31T22:54:00.803Z,53.00
2019-03-31T22:55:01.252Z,53.21
2019-03-31T22:56:01.744Z,53.42
2019-03-31T22:57:02.218Z,53.52
2019-03-31T22:58:02.663Z,53.42
2019-03-31T22:59:03.107Z,53.31
2019-03-31T23:00:03.557Z,53.31
2019-03-31T23:01:04.044Z,53.42
2019-03-31T23:02:04.491Z,53.75
2019-03-31T23:03:04.954Z,53.83
2019-03-31T23:04:05.399Z,53.75
2019-03-31T23:05:05.848Z,53.65
2019-03-31T23:06:06.347Z,53.55
2019-03-31T23:07:06.952Z,53.34
2019-03-31T23:08:07.416Z,53.65
2019-03-31T23:09:07.916Z,53.55
2019-03-31T23:10:08.360Z,53.44
2019-03-31T23:11:08.819Z,52.93
2019-03-31T23:14:29.530Z,53.65
2019-03-31T23:15:58.992Z,53.23
2019-03-31T23:16:59.460Z,54.17
2019-03-31T23:18:00.113Z,54.38
2019-03-31T23:19:00.554Z,53.96
2019-03-31T23:20:01.121Z,53.78
2019-03-31T23:21:01.583Z,53.75
2019-03-31T23:22:02.079Z,54.17
2019-03-31T23:23:02.534Z,53.78
2019-03-31T23:24:02.985Z,53.57
2019-03-31T23:25:03.437Z,53.78
2019-03-31T23:26:03.900Z,53.78
2019-03-31T23:27:04.360Z,54.09
2019-03-31T23:28:04.848Z,54.09
2019-03-31T23:29:05.287Z,53.99
2019-03-31T23:30:05.787Z,53.57
2019-03-31T23:31:06.451Z,53.78
2019-03-31T23:32:06.886Z,53.99
2019-03-31T23:33:07.468Z,54.30
2019-03-31T23:34:07.949Z,54.61
2019-03-31T23:35:09.483Z,54.19
2019-03-31T23:36:10.053Z,54.30
2019-03-31T23:37:10.627Z,53.99
2019-03-31T23:38:11.079Z,53.99
2019-03-31T23:39:11.628Z,53.67
2019-03-31T23:40:12.093Z,54.30
2019-03-31T23:41:12.703Z,54.19
2019-03-31T23:42:13.152Z,54.61
2019-03-31T23:43:13.701Z,54.09
2019-03-31T23:44:14.154Z,54.09
2019-03-31T23:45:14.749Z,54.19
2019-03-31T23:46:15.208Z,54.63
2019-03-31T23:47:15.860Z,54.22
2019-03-31T23:48:16.304Z,54.22
2019-03-31T23:49:17.837Z,54.32
2019-03-31T23:50:18.287Z,54.43
2019-03-31T23:51:18.828Z,54.11
2019-03-31T23:52:19.268Z,54.22
2019-03-31T23:53:21.884Z,54.84
2019-03-31T23:54:22.326Z,54.43
2019-03-31T23:55:22.907Z,55.46
2019-03-31T23:56:23.361Z,54.53
2019-03-31T23:57:23.943Z,54.63
2019-03-31T23:58:24.388Z,54.94
2019-03-31T23:59:24.975Z,54.84
